<?xml version="1.0" encoding="UTF-8" standalone="no" ?>
<gpx xmlns="http://www.topografix.com/GPX/1/1" xmlns:xsi="http://www.w3.org/2001/XMLSchema-instance" xsi:schemaLocation="http://www.topografix.com/GPX/1/1 http://www.topografix.com/GPX/1/1/gpx.xsd" version="1.1" creator="VisuGPX - https://www.visugpx.com">
  <metadata>
    <name>Le Chemin des 17 Capitelles</name>
  </metadata>
  <trk>
    <name><![CDATA[Le Chemin des 17 Capitelles]]></name>
    <extensions>
      <line xmlns="http://www.topografix.com/GPX/gpx_style/0/2">
        <color>0000FF</color>
        <width>4</width>
      </line>
    </extensions>
    <trkseg>
      <trkpt lat="43.79248" lon="4.30546">
        <ele>37.97065</ele>
        <time>2017-05-08T13:36:13.000Z</time>
      </trkpt>
      <trkpt lat="43.79244" lon="4.30537">
        <ele>38.32819</ele>
        <time>2017-05-08T13:36:47.000Z</time>
      </trkpt>
      <trkpt lat="43.79279" lon="4.305">
        <ele>39.63931</ele>
        <time>2017-05-08T13:37:10.000Z</time>
      </trkpt>
      <trkpt lat="43.79301" lon="4.30481">
        <ele>40.26411</ele>
        <time>2017-05-08T13:37:33.000Z</time>
      </trkpt>
      <trkpt lat="43.79321" lon="4.30463">
        <ele>43.63662</ele>
        <time>2017-05-08T13:37:54.000Z</time>
      </trkpt>
      <trkpt lat="43.79363" lon="4.3043">
        <ele>45.50717</ele>
        <time>2017-05-08T13:38:30.000Z</time>
      </trkpt>
      <trkpt lat="43.79384" lon="4.30412">
        <ele>42.01704</ele>
        <time>2017-05-08T13:39:43.000Z</time>
      </trkpt>
      <trkpt lat="43.79404" lon="4.30395">
        <ele>43.66449</ele>
        <time>2017-05-08T13:40:08.000Z</time>
      </trkpt>
      <trkpt lat="43.79422" lon="4.30375">
        <ele>44.77917</ele>
        <time>2017-05-08T13:40:28.000Z</time>
      </trkpt>
      <trkpt lat="43.79435" lon="4.30349">
        <ele>45.85271</ele>
        <time>2017-05-08T13:40:52.000Z</time>
      </trkpt>
      <trkpt lat="43.79448" lon="4.30323">
        <ele>47.35193</ele>
        <time>2017-05-08T13:41:20.000Z</time>
      </trkpt>
      <trkpt lat="43.79458" lon="4.30294">
        <ele>47.6359</ele>
        <time>2017-05-08T13:42:05.000Z</time>
      </trkpt>
      <trkpt lat="43.79474" lon="4.30271">
        <ele>49.79021</ele>
        <time>2017-05-08T13:42:26.000Z</time>
      </trkpt>
      <trkpt lat="43.79491" lon="4.30249">
        <ele>50.64956</ele>
        <time>2017-05-08T13:42:43.000Z</time>
      </trkpt>
      <trkpt lat="43.79508" lon="4.30229">
        <ele>50.70189</ele>
        <time>2017-05-08T13:43:01.000Z</time>
      </trkpt>
      <trkpt lat="43.79525" lon="4.30207">
        <ele>51.58435</ele>
        <time>2017-05-08T13:43:19.000Z</time>
      </trkpt>
      <trkpt lat="43.79541" lon="4.30184">
        <ele>52.74367</ele>
        <time>2017-05-08T13:43:37.000Z</time>
      </trkpt>
      <trkpt lat="43.79556" lon="4.3016">
        <ele>53.2153</ele>
        <time>2017-05-08T13:43:57.000Z</time>
      </trkpt>
      <trkpt lat="43.79573" lon="4.30137">
        <ele>53.4267</ele>
        <time>2017-05-08T13:44:37.000Z</time>
      </trkpt>
      <trkpt lat="43.79588" lon="4.30113">
        <ele>54.32286</ele>
        <time>2017-05-08T13:44:58.000Z</time>
      </trkpt>
      <trkpt lat="43.79601" lon="4.30088">
        <ele>54.40716</ele>
        <time>2017-05-08T13:45:54.000Z</time>
      </trkpt>
      <trkpt lat="43.79618" lon="4.30065">
        <ele>55.2955</ele>
        <time>2017-05-08T13:46:11.000Z</time>
      </trkpt>
      <trkpt lat="43.79643" lon="4.30064">
        <ele>56.53898</ele>
        <time>2017-05-08T13:46:29.000Z</time>
      </trkpt>
      <trkpt lat="43.79664" lon="4.30056">
        <ele>57.41503</ele>
        <time>2017-05-08T13:46:46.000Z</time>
      </trkpt>
      <trkpt lat="43.79683" lon="4.30047">
        <ele>57.86323</ele>
        <time>2017-05-08T13:47:05.000Z</time>
      </trkpt>
      <trkpt lat="43.79705" lon="4.30032">
        <ele>58.46466</ele>
        <time>2017-05-08T13:47:56.000Z</time>
      </trkpt>
      <trkpt lat="43.7973" lon="4.30018">
        <ele>59.20554</ele>
        <time>2017-05-08T13:48:14.000Z</time>
      </trkpt>
      <trkpt lat="43.7975" lon="4.30006">
        <ele>59.66513</ele>
        <time>2017-05-08T13:48:31.000Z</time>
      </trkpt>
      <trkpt lat="43.7977" lon="4.29992">
        <ele>60.38369</ele>
        <time>2017-05-08T13:48:50.000Z</time>
      </trkpt>
      <trkpt lat="43.79789" lon="4.29976">
        <ele>61.24505</ele>
        <time>2017-05-08T13:49:12.000Z</time>
      </trkpt>
      <trkpt lat="43.7981" lon="4.29961">
        <ele>62.20017</ele>
        <time>2017-05-08T13:49:31.000Z</time>
      </trkpt>
      <trkpt lat="43.7983" lon="4.29944">
        <ele>63.06124</ele>
        <time>2017-05-08T13:49:49.000Z</time>
      </trkpt>
      <trkpt lat="43.79849" lon="4.29926">
        <ele>64.06838</ele>
        <time>2017-05-08T13:50:19.000Z</time>
      </trkpt>
      <trkpt lat="43.79868" lon="4.2991">
        <ele>64.8658</ele>
        <time>2017-05-08T13:50:40.000Z</time>
      </trkpt>
      <trkpt lat="43.79887" lon="4.29893">
        <ele>65.40839</ele>
        <time>2017-05-08T13:51:06.000Z</time>
      </trkpt>
      <trkpt lat="43.79906" lon="4.29873">
        <ele>65.77823</ele>
        <time>2017-05-08T13:51:29.000Z</time>
      </trkpt>
      <trkpt lat="43.79922" lon="4.2985">
        <ele>66.62251</ele>
        <time>2017-05-08T13:52:01.000Z</time>
      </trkpt>
      <trkpt lat="43.79937" lon="4.29827">
        <ele>67.69662</ele>
        <time>2017-05-08T13:52:23.000Z</time>
      </trkpt>
      <trkpt lat="43.79951" lon="4.29803">
        <ele>68.67568</ele>
        <time>2017-05-08T13:52:45.000Z</time>
      </trkpt>
      <trkpt lat="43.79965" lon="4.29771">
        <ele>68.61908</ele>
        <time>2017-05-08T13:53:04.000Z</time>
      </trkpt>
      <trkpt lat="43.79978" lon="4.29751">
        <ele>67.8825</ele>
        <time>2017-05-08T13:53:33.000Z</time>
      </trkpt>
      <trkpt lat="43.79997" lon="4.29735">
        <ele>67.73321</ele>
        <time>2017-05-08T13:54:09.000Z</time>
      </trkpt>
      <trkpt lat="43.80018" lon="4.29725">
        <ele>67.77143</ele>
        <time>2017-05-08T13:55:24.000Z</time>
      </trkpt>
      <trkpt lat="43.80043" lon="4.29703">
        <ele>69.03714</ele>
        <time>2017-05-08T13:55:55.000Z</time>
      </trkpt>
      <trkpt lat="43.80059" lon="4.29687">
        <ele>70.08517</ele>
        <time>2017-05-08T13:56:15.000Z</time>
      </trkpt>
      <trkpt lat="43.80079" lon="4.29667">
        <ele>70.585</ele>
        <time>2017-05-08T13:56:34.000Z</time>
      </trkpt>
      <trkpt lat="43.80095" lon="4.29663">
        <ele>70.60792</ele>
        <time>2017-05-08T14:00:00.000Z</time>
      </trkpt>
      <trkpt lat="43.8011" lon="4.29657">
        <ele>70.60045</ele>
        <time>2017-05-08T14:00:16.000Z</time>
      </trkpt>
      <trkpt lat="43.80124" lon="4.29649">
        <ele>70.53529</ele>
        <time>2017-05-08T14:00:33.000Z</time>
      </trkpt>
      <trkpt lat="43.80139" lon="4.29645">
        <ele>70.63663</ele>
        <time>2017-05-08T14:00:52.000Z</time>
      </trkpt>
      <trkpt lat="43.80156" lon="4.29636">
        <ele>70.71477</ele>
        <time>2017-05-08T14:02:52.252Z</time>
      </trkpt>
      <trkpt lat="43.80169" lon="4.29629">
        <ele>70.80258</ele>
        <time>2017-05-08T14:04:18.827Z</time>
      </trkpt>
      <trkpt lat="43.8017" lon="4.29629">
        <ele>70.81466</ele>
        <time>2017-05-08T14:04:24.000Z</time>
      </trkpt>
      <trkpt lat="43.80187" lon="4.29615">
        <ele>71.02692</ele>
        <time>2017-05-08T14:04:44.000Z</time>
      </trkpt>
      <trkpt lat="43.80214" lon="4.29605">
        <ele>71.86535</ele>
        <time>2017-05-08T14:05:14.000Z</time>
      </trkpt>
      <trkpt lat="43.80227" lon="4.29602">
        <ele>72.6001</ele>
        <time>2017-05-08T14:05:36.000Z</time>
      </trkpt>
      <trkpt lat="43.80248" lon="4.29594">
        <ele>74.14874</ele>
        <time>2017-05-08T14:06:06.000Z</time>
      </trkpt>
      <trkpt lat="43.80262" lon="4.29595">
        <ele>75.10706</ele>
        <time>2017-05-08T14:06:27.000Z</time>
      </trkpt>
      <trkpt lat="43.8028" lon="4.29605">
        <ele>75.86892</ele>
        <time>2017-05-08T14:06:45.865Z</time>
      </trkpt>
      <trkpt lat="43.80292" lon="4.29608">
        <ele>76.32211</ele>
        <time>2017-05-08T14:06:58.000Z</time>
      </trkpt>
      <trkpt lat="43.80292" lon="4.29608">
        <ele>76.30543</ele>
        <time>2017-05-08T14:08:51.000Z</time>
      </trkpt>
      <trkpt lat="43.80309" lon="4.296">
        <ele>77.57872</ele>
        <time>2017-05-08T14:09:15.000Z</time>
      </trkpt>
      <trkpt lat="43.80321" lon="4.2959">
        <ele>79.21782</ele>
        <time>2017-05-08T14:09:43.000Z</time>
      </trkpt>
      <trkpt lat="43.8032" lon="4.29591">
        <ele>79.10316</ele>
        <time>2017-05-08T14:12:16.000Z</time>
      </trkpt>
      <trkpt lat="43.80292" lon="4.29607">
        <ele>76.3312</ele>
        <time>2017-05-08T14:12:37.000Z</time>
      </trkpt>
      <trkpt lat="43.8028" lon="4.29604">
        <ele>75.89357</ele>
        <time>2017-05-08T14:12:57.000Z</time>
      </trkpt>
      <trkpt lat="43.80262" lon="4.29595">
        <ele>75.08206</ele>
        <time>2017-05-08T14:13:14.000Z</time>
      </trkpt>
      <trkpt lat="43.80248" lon="4.29595">
        <ele>74.16389</ele>
        <time>2017-05-08T14:13:32.000Z</time>
      </trkpt>
      <trkpt lat="43.80227" lon="4.29603">
        <ele>72.59708</ele>
        <time>2017-05-08T14:13:50.000Z</time>
      </trkpt>
      <trkpt lat="43.80187" lon="4.29614">
        <ele>71.00904</ele>
        <time>2017-05-08T14:14:08.000Z</time>
      </trkpt>
      <trkpt lat="43.80168" lon="4.29628">
        <ele>70.77062</ele>
        <time>2017-05-08T14:14:27.000Z</time>
      </trkpt>
      <trkpt lat="43.80156" lon="4.29638">
        <ele>70.72983</ele>
        <time>2017-05-08T14:14:48.000Z</time>
      </trkpt>
      <trkpt lat="43.80124" lon="4.2965">
        <ele>70.55372</ele>
        <time>2017-05-08T14:15:06.000Z</time>
      </trkpt>
      <trkpt lat="43.80095" lon="4.29663">
        <ele>70.60365</ele>
        <time>2017-05-08T14:15:26.000Z</time>
      </trkpt>
      <trkpt lat="43.80087" lon="4.29651">
        <ele>70.49678</ele>
        <time>2017-05-08T14:15:46.000Z</time>
      </trkpt>
      <trkpt lat="43.80085" lon="4.29628">
        <ele>69.44216</ele>
        <time>2017-05-08T14:16:16.000Z</time>
      </trkpt>
      <trkpt lat="43.80093" lon="4.29603">
        <ele>67.47104</ele>
        <time>2017-05-08T14:16:34.000Z</time>
      </trkpt>
      <trkpt lat="43.80108" lon="4.29577">
        <ele>65.76473</ele>
        <time>2017-05-08T14:17:01.000Z</time>
      </trkpt>
      <trkpt lat="43.8012" lon="4.29549">
        <ele>64.4126</ele>
        <time>2017-05-08T14:17:19.000Z</time>
      </trkpt>
      <trkpt lat="43.80132" lon="4.29522">
        <ele>63.68264</ele>
        <time>2017-05-08T14:17:38.000Z</time>
      </trkpt>
      <trkpt lat="43.80144" lon="4.29496">
        <ele>63.23076</ele>
        <time>2017-05-08T14:17:57.000Z</time>
      </trkpt>
      <trkpt lat="43.80158" lon="4.2947">
        <ele>62.89116</ele>
        <time>2017-05-08T14:18:15.000Z</time>
      </trkpt>
      <trkpt lat="43.80176" lon="4.29448">
        <ele>62.84223</ele>
        <time>2017-05-08T14:18:49.000Z</time>
      </trkpt>
      <trkpt lat="43.80196" lon="4.29431">
        <ele>63.30107</ele>
        <time>2017-05-08T14:19:11.000Z</time>
      </trkpt>
      <trkpt lat="43.80216" lon="4.29415">
        <ele>63.63055</ele>
        <time>2017-05-08T14:19:28.000Z</time>
      </trkpt>
      <trkpt lat="43.80237" lon="4.29399">
        <ele>63.78665</ele>
        <time>2017-05-08T14:19:48.000Z</time>
      </trkpt>
      <trkpt lat="43.80256" lon="4.29384">
        <ele>64.08346</ele>
        <time>2017-05-08T14:20:36.000Z</time>
      </trkpt>
      <trkpt lat="43.80274" lon="4.29364">
        <ele>64.83579</ele>
        <time>2017-05-08T14:20:52.000Z</time>
      </trkpt>
      <trkpt lat="43.80292" lon="4.29344">
        <ele>64.84473</ele>
        <time>2017-05-08T14:21:10.000Z</time>
      </trkpt>
      <trkpt lat="43.8031" lon="4.29324">
        <ele>64.93057</ele>
        <time>2017-05-08T14:21:29.000Z</time>
      </trkpt>
      <trkpt lat="43.80325" lon="4.29302">
        <ele>65.39717</ele>
        <time>2017-05-08T14:22:38.000Z</time>
      </trkpt>
      <trkpt lat="43.80339" lon="4.29279">
        <ele>66.33284</ele>
        <time>2017-05-08T14:23:30.000Z</time>
      </trkpt>
      <trkpt lat="43.80354" lon="4.29253">
        <ele>67.42346</ele>
        <time>2017-05-08T14:23:58.000Z</time>
      </trkpt>
      <trkpt lat="43.80369" lon="4.29229">
        <ele>69.64425</ele>
        <time>2017-05-08T14:24:21.000Z</time>
      </trkpt>
      <trkpt lat="43.80384" lon="4.29205">
        <ele>72.38977</ele>
        <time>2017-05-08T14:24:49.000Z</time>
      </trkpt>
      <trkpt lat="43.80405" lon="4.29172">
        <ele>75.95111</ele>
        <time>2017-05-08T14:25:11.000Z</time>
      </trkpt>
      <trkpt lat="43.80425" lon="4.29136">
        <ele>79.17233</ele>
        <time>2017-05-08T14:28:11.000Z</time>
      </trkpt>
      <trkpt lat="43.8044" lon="4.2911">
        <ele>80.68067</ele>
        <time>2017-05-08T14:28:32.000Z</time>
      </trkpt>
      <trkpt lat="43.80453" lon="4.29086">
        <ele>83.08416</ele>
        <time>2017-05-08T14:29:14.000Z</time>
      </trkpt>
      <trkpt lat="43.80463" lon="4.29064">
        <ele>85.13345</ele>
        <time>2017-05-08T14:29:38.000Z</time>
      </trkpt>
      <trkpt lat="43.80471" lon="4.2904">
        <ele>86.5695</ele>
        <time>2017-05-08T14:30:09.000Z</time>
      </trkpt>
      <trkpt lat="43.80487" lon="4.29023">
        <ele>89.26106</ele>
        <time>2017-05-08T14:33:10.000Z</time>
      </trkpt>
      <trkpt lat="43.80519" lon="4.29004">
        <ele>91.91525</ele>
        <time>2017-05-08T14:33:28.000Z</time>
      </trkpt>
      <trkpt lat="43.80543" lon="4.28994">
        <ele>93.87813</ele>
        <time>2017-05-08T14:33:47.000Z</time>
      </trkpt>
      <trkpt lat="43.80563" lon="4.28977">
        <ele>95.25267</ele>
        <time>2017-05-08T14:34:07.000Z</time>
      </trkpt>
      <trkpt lat="43.80583" lon="4.28958">
        <ele>96.28348</ele>
        <time>2017-05-08T14:34:37.000Z</time>
      </trkpt>
      <trkpt lat="43.80601" lon="4.28942">
        <ele>96.77666</ele>
        <time>2017-05-08T14:34:54.000Z</time>
      </trkpt>
      <trkpt lat="43.8062" lon="4.28924">
        <ele>97.65245</ele>
        <time>2017-05-08T14:35:13.000Z</time>
      </trkpt>
      <trkpt lat="43.80641" lon="4.28912">
        <ele>98.74603</ele>
        <time>2017-05-08T14:37:49.000Z</time>
      </trkpt>
      <trkpt lat="43.80664" lon="4.28902">
        <ele>99.83604</ele>
        <time>2017-05-08T14:38:06.000Z</time>
      </trkpt>
      <trkpt lat="43.80685" lon="4.28897">
        <ele>100.70435</ele>
        <time>2017-05-08T14:38:24.000Z</time>
      </trkpt>
      <trkpt lat="43.80707" lon="4.28879">
        <ele>101.05101</ele>
        <time>2017-05-08T14:38:49.000Z</time>
      </trkpt>
      <trkpt lat="43.80717" lon="4.28865">
        <ele>101.08073</ele>
        <time>2017-05-08T14:41:15.000Z</time>
      </trkpt>
      <trkpt lat="43.80729" lon="4.28849">
        <ele>101.91517</ele>
        <time>2017-05-08T14:43:22.656Z</time>
      </trkpt>
      <trkpt lat="43.80746" lon="4.28836">
        <ele>102.87501</ele>
        <time>2017-05-08T14:45:48.000Z</time>
      </trkpt>
      <trkpt lat="43.80766" lon="4.28822">
        <ele>103.20499</ele>
        <time>2017-05-08T14:46:08.000Z</time>
      </trkpt>
      <trkpt lat="43.80787" lon="4.28806">
        <ele>102.48847</ele>
        <time>2017-05-08T14:46:28.000Z</time>
      </trkpt>
      <trkpt lat="43.80811" lon="4.2879">
        <ele>101.31779</ele>
        <time>2017-05-08T14:46:45.000Z</time>
      </trkpt>
      <trkpt lat="43.80819" lon="4.28783">
        <ele>100.78367</ele>
        <time>2017-05-08T14:47:13.000Z</time>
      </trkpt>
      <trkpt lat="43.80841" lon="4.28744">
        <ele>99.63363</ele>
        <time>2017-05-08T14:47:31.000Z</time>
      </trkpt>
      <trkpt lat="43.80832" lon="4.28721">
        <ele>98.88182</ele>
        <time>2017-05-08T14:48:06.000Z</time>
      </trkpt>
      <trkpt lat="43.80824" lon="4.2869">
        <ele>98.53912</ele>
        <time>2017-05-08T14:48:25.000Z</time>
      </trkpt>
      <trkpt lat="43.80818" lon="4.2866">
        <ele>98.54815</ele>
        <time>2017-05-08T14:49:25.000Z</time>
      </trkpt>
      <trkpt lat="43.80812" lon="4.28631">
        <ele>98.61069</ele>
        <time>2017-05-08T14:50:12.000Z</time>
      </trkpt>
      <trkpt lat="43.80804" lon="4.28599">
        <ele>98.32967</ele>
        <time>2017-05-08T14:50:32.000Z</time>
      </trkpt>
      <trkpt lat="43.80802" lon="4.28566">
        <ele>97.61318</ele>
        <time>2017-05-08T14:51:06.000Z</time>
      </trkpt>
      <trkpt lat="43.80807" lon="4.28535">
        <ele>96.64258</ele>
        <time>2017-05-08T14:51:25.000Z</time>
      </trkpt>
      <trkpt lat="43.80817" lon="4.28506">
        <ele>95.77256</ele>
        <time>2017-05-08T14:51:42.000Z</time>
      </trkpt>
      <trkpt lat="43.80824" lon="4.28478">
        <ele>95.58656</ele>
        <time>2017-05-08T14:52:04.000Z</time>
      </trkpt>
      <trkpt lat="43.80826" lon="4.28446">
        <ele>96.05213</ele>
        <time>2017-05-08T14:52:24.000Z</time>
      </trkpt>
      <trkpt lat="43.80828" lon="4.28414">
        <ele>96.61</ele>
        <time>2017-05-08T14:54:39.000Z</time>
      </trkpt>
      <trkpt lat="43.80829" lon="4.28379">
        <ele>97.47909</ele>
        <time>2017-05-08T14:55:04.000Z</time>
      </trkpt>
      <trkpt lat="43.80833" lon="4.28348">
        <ele>98.57717</ele>
        <time>2017-05-08T14:55:26.000Z</time>
      </trkpt>
      <trkpt lat="43.80838" lon="4.28319">
        <ele>99.67884</ele>
        <time>2017-05-08T14:55:46.000Z</time>
      </trkpt>
      <trkpt lat="43.80841" lon="4.28288">
        <ele>99.95474</ele>
        <time>2017-05-08T14:56:04.000Z</time>
      </trkpt>
      <trkpt lat="43.80846" lon="4.28255">
        <ele>99.85441</ele>
        <time>2017-05-08T14:56:26.000Z</time>
      </trkpt>
      <trkpt lat="43.80847" lon="4.28225">
        <ele>100.50844</ele>
        <time>2017-05-08T14:56:57.000Z</time>
      </trkpt>
      <trkpt lat="43.80847" lon="4.28203">
        <ele>100.92824</ele>
        <time>2017-05-08T15:02:33.000Z</time>
      </trkpt>
      <trkpt lat="43.80847" lon="4.28174">
        <ele>101.04299</ele>
        <time>2017-05-08T15:03:10.000Z</time>
      </trkpt>
      <trkpt lat="43.80844" lon="4.28141">
        <ele>102.17058</ele>
        <time>2017-05-08T15:03:38.000Z</time>
      </trkpt>
      <trkpt lat="43.80842" lon="4.28111">
        <ele>103.14508</ele>
        <time>2017-05-08T15:04:08.000Z</time>
      </trkpt>
      <trkpt lat="43.80841" lon="4.28078">
        <ele>104.19843</ele>
        <time>2017-05-08T15:04:27.000Z</time>
      </trkpt>
      <trkpt lat="43.80839" lon="4.28047">
        <ele>105.17121</ele>
        <time>2017-05-08T15:04:47.000Z</time>
      </trkpt>
      <trkpt lat="43.80838" lon="4.28018">
        <ele>106.04663</ele>
        <time>2017-05-08T15:05:06.000Z</time>
      </trkpt>
      <trkpt lat="43.80837" lon="4.27985">
        <ele>107.03284</ele>
        <time>2017-05-08T15:05:41.000Z</time>
      </trkpt>
      <trkpt lat="43.80839" lon="4.27953">
        <ele>107.70989</ele>
        <time>2017-05-08T15:06:00.000Z</time>
      </trkpt>
      <trkpt lat="43.80841" lon="4.2791">
        <ele>108.81383</ele>
        <time>2017-05-08T15:06:18.000Z</time>
      </trkpt>
      <trkpt lat="43.80818" lon="4.27913">
        <ele>108.58606</ele>
        <time>2017-05-08T15:07:02.000Z</time>
      </trkpt>
      <trkpt lat="43.80789" lon="4.2792">
        <ele>108.51856</ele>
        <time>2017-05-08T15:07:21.000Z</time>
      </trkpt>
      <trkpt lat="43.80772" lon="4.27934">
        <ele>108.32068</ele>
        <time>2017-05-08T15:07:42.000Z</time>
      </trkpt>
      <trkpt lat="43.80752" lon="4.27951">
        <ele>107.80458</ele>
        <time>2017-05-08T15:08:05.000Z</time>
      </trkpt>
      <trkpt lat="43.80734" lon="4.27964">
        <ele>107.10232</ele>
        <time>2017-05-08T15:08:23.000Z</time>
      </trkpt>
      <trkpt lat="43.80705" lon="4.27985">
        <ele>106.96592</ele>
        <time>2017-05-08T15:11:47.000Z</time>
      </trkpt>
      <trkpt lat="43.80685" lon="4.28001">
        <ele>106.60209</ele>
        <time>2017-05-08T15:12:12.000Z</time>
      </trkpt>
      <trkpt lat="43.80656" lon="4.28024">
        <ele>105.86819</ele>
        <time>2017-05-08T15:12:30.000Z</time>
      </trkpt>
      <trkpt lat="43.80646" lon="4.2804">
        <ele>105.87803</ele>
        <time>2017-05-08T15:15:01.000Z</time>
      </trkpt>
      <trkpt lat="43.80635" lon="4.2807">
        <ele>105.9038</ele>
        <time>2017-05-08T15:15:19.000Z</time>
      </trkpt>
      <trkpt lat="43.80619" lon="4.28092">
        <ele>105.15206</ele>
        <time>2017-05-08T15:15:36.000Z</time>
      </trkpt>
      <trkpt lat="43.80603" lon="4.28114">
        <ele>104.82735</ele>
        <time>2017-05-08T15:15:53.000Z</time>
      </trkpt>
      <trkpt lat="43.80583" lon="4.28134">
        <ele>104.76431</ele>
        <time>2017-05-08T15:16:13.000Z</time>
      </trkpt>
      <trkpt lat="43.80563" lon="4.28147">
        <ele>103.80044</ele>
        <time>2017-05-08T15:16:32.000Z</time>
      </trkpt>
      <trkpt lat="43.80537" lon="4.28158">
        <ele>103.54036</ele>
        <time>2017-05-08T15:17:05.000Z</time>
      </trkpt>
      <trkpt lat="43.80521" lon="4.28179">
        <ele>102.90515</ele>
        <time>2017-05-08T15:17:27.000Z</time>
      </trkpt>
      <trkpt lat="43.8051" lon="4.28199">
        <ele>102.49891</ele>
        <time>2017-05-08T15:17:48.000Z</time>
      </trkpt>
      <trkpt lat="43.80498" lon="4.28228">
        <ele>101.91811</ele>
        <time>2017-05-08T15:18:06.000Z</time>
      </trkpt>
      <trkpt lat="43.80488" lon="4.28254">
        <ele>101.45666</ele>
        <time>2017-05-08T15:18:39.000Z</time>
      </trkpt>
      <trkpt lat="43.80477" lon="4.28282">
        <ele>101.03207</ele>
        <time>2017-05-08T15:19:53.000Z</time>
      </trkpt>
      <trkpt lat="43.80466" lon="4.28309">
        <ele>100.54277</ele>
        <time>2017-05-08T15:20:13.000Z</time>
      </trkpt>
      <trkpt lat="43.80455" lon="4.28336">
        <ele>99.96884</ele>
        <time>2017-05-08T15:20:30.000Z</time>
      </trkpt>
      <trkpt lat="43.80441" lon="4.28365">
        <ele>99.20257</ele>
        <time>2017-05-08T15:21:32.000Z</time>
      </trkpt>
      <trkpt lat="43.80431" lon="4.28392">
        <ele>98.47266</ele>
        <time>2017-05-08T15:21:50.000Z</time>
      </trkpt>
      <trkpt lat="43.80419" lon="4.28419">
        <ele>98.19523</ele>
        <time>2017-05-08T15:22:09.000Z</time>
      </trkpt>
      <trkpt lat="43.80412" lon="4.28449">
        <ele>98.24253</ele>
        <time>2017-05-08T15:22:43.000Z</time>
      </trkpt>
      <trkpt lat="43.804" lon="4.28476">
        <ele>98.08348</ele>
        <time>2017-05-08T15:23:02.000Z</time>
      </trkpt>
      <trkpt lat="43.8039" lon="4.28489">
        <ele>97.68814</ele>
        <time>2017-05-08T15:23:18.000Z</time>
      </trkpt>
      <trkpt lat="43.80373" lon="4.28506">
        <ele>96.9782</ele>
        <time>2017-05-08T15:23:40.000Z</time>
      </trkpt>
      <trkpt lat="43.80361" lon="4.28528">
        <ele>96.08157</ele>
        <time>2017-05-08T15:23:59.462Z</time>
      </trkpt>
      <trkpt lat="43.80355" lon="4.28545">
        <ele>95.49577</ele>
        <time>2017-05-08T15:24:13.000Z</time>
      </trkpt>
      <trkpt lat="43.80342" lon="4.28575">
        <ele>94.83314</ele>
        <time>2017-05-08T15:24:32.000Z</time>
      </trkpt>
      <trkpt lat="43.80333" lon="4.28601">
        <ele>94.21728</ele>
        <time>2017-05-08T15:24:51.000Z</time>
      </trkpt>
      <trkpt lat="43.80323" lon="4.28627">
        <ele>92.91643</ele>
        <time>2017-05-08T15:25:09.000Z</time>
      </trkpt>
      <trkpt lat="43.80306" lon="4.28644">
        <ele>91.5433</ele>
        <time>2017-05-08T15:25:28.000Z</time>
      </trkpt>
      <trkpt lat="43.80286" lon="4.28667">
        <ele>89.89889</ele>
        <time>2017-05-08T15:25:46.000Z</time>
      </trkpt>
      <trkpt lat="43.80264" lon="4.28696">
        <ele>88.96016</ele>
        <time>2017-05-08T15:26:04.000Z</time>
      </trkpt>
      <trkpt lat="43.80232" lon="4.28723">
        <ele>88.03171</ele>
        <time>2017-05-08T15:26:39.000Z</time>
      </trkpt>
      <trkpt lat="43.80203" lon="4.28748">
        <ele>87.05448</ele>
        <time>2017-05-08T15:26:57.000Z</time>
      </trkpt>
      <trkpt lat="43.80191" lon="4.28773">
        <ele>86.39622</ele>
        <time>2017-05-08T15:27:15.000Z</time>
      </trkpt>
      <trkpt lat="43.80185" lon="4.28806">
        <ele>85.44426</ele>
        <time>2017-05-08T15:27:35.000Z</time>
      </trkpt>
      <trkpt lat="43.80175" lon="4.28831">
        <ele>84.50827</ele>
        <time>2017-05-08T15:27:54.000Z</time>
      </trkpt>
      <trkpt lat="43.80169" lon="4.28851">
        <ele>83.94888</ele>
        <time>2017-05-08T15:28:13.000Z</time>
      </trkpt>
      <trkpt lat="43.80165" lon="4.28881">
        <ele>83.4213</ele>
        <time>2017-05-08T15:28:32.000Z</time>
      </trkpt>
      <trkpt lat="43.80159" lon="4.28916">
        <ele>82.60225</ele>
        <time>2017-05-08T15:28:56.000Z</time>
      </trkpt>
      <trkpt lat="43.80138" lon="4.28931">
        <ele>83.44023</ele>
        <time>2017-05-08T15:29:16.000Z</time>
      </trkpt>
      <trkpt lat="43.80133" lon="4.28959">
        <ele>83.94547</ele>
        <time>2017-05-08T15:29:35.000Z</time>
      </trkpt>
      <trkpt lat="43.80134" lon="4.2899">
        <ele>83.36623</ele>
        <time>2017-05-08T15:30:02.000Z</time>
      </trkpt>
      <trkpt lat="43.80136" lon="4.29022">
        <ele>82.88202</ele>
        <time>2017-05-08T15:30:22.000Z</time>
      </trkpt>
      <trkpt lat="43.80135" lon="4.29055">
        <ele>82.34029</ele>
        <time>2017-05-08T15:30:41.000Z</time>
      </trkpt>
      <trkpt lat="43.80132" lon="4.29086">
        <ele>81.37248</ele>
        <time>2017-05-08T15:30:58.000Z</time>
      </trkpt>
      <trkpt lat="43.8013" lon="4.29118">
        <ele>80.27572</ele>
        <time>2017-05-08T15:31:19.000Z</time>
      </trkpt>
      <trkpt lat="43.80134" lon="4.29149">
        <ele>79.35805</ele>
        <time>2017-05-08T15:32:33.000Z</time>
      </trkpt>
      <trkpt lat="43.80139" lon="4.29181">
        <ele>79.04536</ele>
        <time>2017-05-08T15:32:57.000Z</time>
      </trkpt>
      <trkpt lat="43.80145" lon="4.29209">
        <ele>78.4138</ele>
        <time>2017-05-08T15:34:27.000Z</time>
      </trkpt>
      <trkpt lat="43.80144" lon="4.29241">
        <ele>76.73504</ele>
        <time>2017-05-08T15:34:44.000Z</time>
      </trkpt>
      <trkpt lat="43.8014" lon="4.29273">
        <ele>73.96747</ele>
        <time>2017-05-08T15:35:06.000Z</time>
      </trkpt>
      <trkpt lat="43.80138" lon="4.29304">
        <ele>70.66567</ele>
        <time>2017-05-08T15:35:25.000Z</time>
      </trkpt>
      <trkpt lat="43.80134" lon="4.29352">
        <ele>66.01605</ele>
        <time>2017-05-08T15:35:47.000Z</time>
      </trkpt>
      <trkpt lat="43.80142" lon="4.29393">
        <ele>63.3346</ele>
        <time>2017-05-08T15:36:24.000Z</time>
      </trkpt>
      <trkpt lat="43.80149" lon="4.29431">
        <ele>62.67719</ele>
        <time>2017-05-08T15:36:43.000Z</time>
      </trkpt>
      <trkpt lat="43.80155" lon="4.29472">
        <ele>62.75845</ele>
        <time>2017-05-08T15:37:19.000Z</time>
      </trkpt>
      <trkpt lat="43.80136" lon="4.29511">
        <ele>63.39745</ele>
        <time>2017-05-08T15:37:36.000Z</time>
      </trkpt>
      <trkpt lat="43.80123" lon="4.29538">
        <ele>64.0171</ele>
        <time>2017-05-08T15:37:55.000Z</time>
      </trkpt>
      <trkpt lat="43.8011" lon="4.29567">
        <ele>65.157</ele>
        <time>2017-05-08T15:38:14.000Z</time>
      </trkpt>
      <trkpt lat="43.80096" lon="4.29594">
        <ele>66.73919</ele>
        <time>2017-05-08T15:38:34.000Z</time>
      </trkpt>
      <trkpt lat="43.80086" lon="4.29627">
        <ele>69.33443</ele>
        <time>2017-05-08T15:38:56.000Z</time>
      </trkpt>
      <trkpt lat="43.80081" lon="4.29653">
        <ele>70.54549</ele>
        <time>2017-05-08T15:39:17.000Z</time>
      </trkpt>
      <trkpt lat="43.8007" lon="4.29673">
        <ele>70.54435</ele>
        <time>2017-05-08T15:39:47.000Z</time>
      </trkpt>
      <trkpt lat="43.80046" lon="4.29698">
        <ele>69.40353</ele>
        <time>2017-05-08T15:40:22.000Z</time>
      </trkpt>
      <trkpt lat="43.80017" lon="4.29724">
        <ele>67.96275</ele>
        <time>2017-05-08T15:40:39.000Z</time>
      </trkpt>
      <trkpt lat="43.79993" lon="4.29734">
        <ele>68.04192</ele>
        <time>2017-05-08T15:41:00.000Z</time>
      </trkpt>
      <trkpt lat="43.79979" lon="4.29747">
        <ele>67.98128</ele>
        <time>2017-05-08T15:41:28.000Z</time>
      </trkpt>
      <trkpt lat="43.79967" lon="4.29763">
        <ele>68.63408</ele>
        <time>2017-05-08T15:42:04.000Z</time>
      </trkpt>
      <trkpt lat="43.79957" lon="4.29788">
        <ele>68.857</ele>
        <time>2017-05-08T15:42:25.000Z</time>
      </trkpt>
      <trkpt lat="43.79943" lon="4.29814">
        <ele>68.41148</ele>
        <time>2017-05-08T15:42:49.000Z</time>
      </trkpt>
      <trkpt lat="43.79929" lon="4.29836">
        <ele>67.3903</ele>
        <time>2017-05-08T15:43:08.000Z</time>
      </trkpt>
      <trkpt lat="43.79913" lon="4.29861">
        <ele>66.18319</ele>
        <time>2017-05-08T15:43:29.000Z</time>
      </trkpt>
      <trkpt lat="43.79891" lon="4.29886">
        <ele>65.6558</ele>
        <time>2017-05-08T15:43:53.000Z</time>
      </trkpt>
      <trkpt lat="43.79874" lon="4.29902">
        <ele>65.13558</ele>
        <time>2017-05-08T15:44:11.000Z</time>
      </trkpt>
      <trkpt lat="43.79858" lon="4.29917">
        <ele>64.54135</ele>
        <time>2017-05-08T15:44:28.000Z</time>
      </trkpt>
      <trkpt lat="43.79839" lon="4.29935">
        <ele>63.53523</ele>
        <time>2017-05-08T15:44:46.000Z</time>
      </trkpt>
      <trkpt lat="43.79819" lon="4.29952">
        <ele>62.61406</ele>
        <time>2017-05-08T15:45:05.000Z</time>
      </trkpt>
      <trkpt lat="43.79799" lon="4.29967">
        <ele>61.78088</ele>
        <time>2017-05-08T15:45:23.000Z</time>
      </trkpt>
      <trkpt lat="43.79779" lon="4.29982">
        <ele>60.8592</ele>
        <time>2017-05-08T15:45:46.000Z</time>
      </trkpt>
      <trkpt lat="43.79758" lon="4.29997">
        <ele>59.9391</ele>
        <time>2017-05-08T15:46:12.000Z</time>
      </trkpt>
      <trkpt lat="43.79739" lon="4.30011">
        <ele>59.38897</ele>
        <time>2017-05-08T15:46:31.000Z</time>
      </trkpt>
      <trkpt lat="43.79716" lon="4.30023">
        <ele>58.84078</ele>
        <time>2017-05-08T15:46:49.000Z</time>
      </trkpt>
      <trkpt lat="43.79693" lon="4.30036">
        <ele>58.09151</ele>
        <time>2017-05-08T15:47:06.000Z</time>
      </trkpt>
      <trkpt lat="43.79672" lon="4.3005">
        <ele>57.65084</ele>
        <time>2017-05-08T15:47:23.000Z</time>
      </trkpt>
      <trkpt lat="43.79641" lon="4.30063">
        <ele>56.50242</ele>
        <time>2017-05-08T15:47:40.000Z</time>
      </trkpt>
      <trkpt lat="43.79624" lon="4.30063">
        <ele>55.56081</ele>
        <time>2017-05-08T15:47:58.000Z</time>
      </trkpt>
      <trkpt lat="43.79616" lon="4.30066">
        <ele>55.22305</ele>
        <time>2017-05-08T15:48:18.000Z</time>
      </trkpt>
      <trkpt lat="43.79593" lon="4.301">
        <ele>54.45205</ele>
        <time>2017-05-08T15:48:36.000Z</time>
      </trkpt>
      <trkpt lat="43.7958" lon="4.30127">
        <ele>53.76338</ele>
        <time>2017-05-08T15:49:01.000Z</time>
      </trkpt>
      <trkpt lat="43.79564" lon="4.30149">
        <ele>53.80959</ele>
        <time>2017-05-08T15:49:28.000Z</time>
      </trkpt>
      <trkpt lat="43.79548" lon="4.30172">
        <ele>52.62732</ele>
        <time>2017-05-08T15:49:48.000Z</time>
      </trkpt>
      <trkpt lat="43.79532" lon="4.30196">
        <ele>51.86543</ele>
        <time>2017-05-08T15:50:13.000Z</time>
      </trkpt>
      <trkpt lat="43.79514" lon="4.30215">
        <ele>52.04645</ele>
        <time>2017-05-08T15:50:42.000Z</time>
      </trkpt>
      <trkpt lat="43.79498" lon="4.30237">
        <ele>50.98113</ele>
        <time>2017-05-08T15:51:01.000Z</time>
      </trkpt>
      <trkpt lat="43.7948" lon="4.30258">
        <ele>50.011</ele>
        <time>2017-05-08T15:51:17.000Z</time>
      </trkpt>
      <trkpt lat="43.79465" lon="4.30283">
        <ele>48.91757</ele>
        <time>2017-05-08T15:51:35.000Z</time>
      </trkpt>
      <trkpt lat="43.79451" lon="4.30308">
        <ele>47.5346</ele>
        <time>2017-05-08T15:51:53.000Z</time>
      </trkpt>
      <trkpt lat="43.7944" lon="4.30336">
        <ele>46.68252</ele>
        <time>2017-05-08T15:52:11.000Z</time>
      </trkpt>
      <trkpt lat="43.79427" lon="4.30363">
        <ele>45.23963</ele>
        <time>2017-05-08T15:52:29.000Z</time>
      </trkpt>
      <trkpt lat="43.79412" lon="4.30386">
        <ele>44.13763</ele>
        <time>2017-05-08T15:52:48.000Z</time>
      </trkpt>
      <trkpt lat="43.79393" lon="4.30405">
        <ele>42.79716</ele>
        <time>2017-05-08T15:53:05.000Z</time>
      </trkpt>
      <trkpt lat="43.79373" lon="4.30419">
        <ele>42.19324</ele>
        <time>2017-05-08T15:53:22.000Z</time>
      </trkpt>
      <trkpt lat="43.79351" lon="4.30429">
        <ele>46.22685</ele>
        <time>2017-05-08T15:53:45.000Z</time>
      </trkpt>
      <trkpt lat="43.79341" lon="4.30447">
        <ele>44.40891</ele>
        <time>2017-05-08T15:54:12.000Z</time>
      </trkpt>
      <trkpt lat="43.79322" lon="4.30461">
        <ele>44.75844</ele>
        <time>2017-05-08T15:54:13.000Z</time>
      </trkpt>
      <trkpt lat="43.79305" lon="4.30475">
        <ele>40.37392</ele>
        <time>2017-05-08T15:54:38.000Z</time>
      </trkpt>
      <trkpt lat="43.79284" lon="4.30493">
        <ele>39.89825</ele>
        <time>2017-05-08T15:54:55.000Z</time>
      </trkpt>
      <trkpt lat="43.79266" lon="4.30511">
        <ele>39.10207</ele>
        <time>2017-05-08T15:55:13.000Z</time>
      </trkpt>
      <trkpt lat="43.79241" lon="4.30537">
        <ele>38.48551</ele>
        <time>2017-05-08T15:55:41.844Z</time>
      </trkpt>
      <trkpt lat="43.79248" lon="4.30545">
        <ele>37.98866</ele>
        <time>2017-05-08T15:55:50.000Z</time>
      </trkpt>
    </trkseg>
  </trk>
</gpx>